sensor_id;sensor_type;location;lat;lon;timestamp;P1;durP1;ratioP1;P2;durP2;ratioP2
3085;SDS011;52812;48.960;9.108;2023-11-19T00:00:20;12.80;;;9.70;;
3085;SDS011;52812;48.960;9.108;2023-11-19T00:02:45;14.23;;;9.43;;
3085;SDS011;52812;48.960;9.108;2023-11-19T00:05:12;11.20;;;8.13;;
3085;SDS011;52812;48.960;9.108;2023-11-19T00:07:38;12.50;;;8.50;;
3085;SDS011;52812;48.960;9.108;2023-11-19T00:10:10;15.57;;;9.70;;
3085;SDS011;52812;48.960;9.108;2023-11-19T00:12:38;15.30;;;8.73;;
3085;SDS011;52812;48.960;9.108;2023-11-19T00:15:09;14.13;;;8.80;;
3085;SDS011;52812;48.960;9.108;2023-11-19T00:17:37;11.53;;;8.50;;
3085;SDS011;52812;48.960;9.108;2023-11-19T00:20:06;11.40;;;7.57;;
3085;SDS011;52812;48.960;9.108;2023-11-19T00:22:33;9.67;;;6.70;;
3085;SDS011;52812;48.960;9.108;2023-11-19T00:24:58;10.90;;;6.30;;
3085;SDS011;52812;48.960;9.108;2023-11-19T00:27:24;8.00;;;5.90;;
3085;SDS011;52812;48.960;9.108;2023-11-19T00:29:51;8.13;;;5.80;;
3085;SDS011;52812;48.960;9.108;2023-11-19T00:32:16;8.47;;;5.60;;
3085;SDS011;52812;48.960;9.108;2023-11-19T00:34:45;8.43;;;5.40;;
3085;SDS011;52812;48.960;9.108;2023-11-19T00:37:13;8.57;;;5.73;;
3085;SDS011;52812;48.960;9.108;2023-11-19T00:39:40;8.43;;;5.97;;
3085;SDS011;52812;48.960;9.108;2023-11-19T00:42:06;8.20;;;5.77;;
3085;SDS011;52812;48.960;9.108;2023-11-19T00:44:32;8.60;;;6.23;;
3085;SDS011;52812;48.960;9.108;2023-11-19T00:46:58;10.30;;;6.83;;
3085;SDS011;52812;48.960;9.108;2023-11-19T00:49:24;8.87;;;6.53;;
3085;SDS011;52812;48.960;9.108;2023-11-19T00:51:50;8.50;;;7.03;;
3085;SDS011;52812;48.960;9.108;2023-11-19T00:54:16;9.70;;;6.90;;
3085;SDS011;52812;48.960;9.108;2023-11-19T00:56:41;12.90;;;7.90;;
3085;SDS011;52812;48.960;9.108;2023-11-19T00:59:07;11.43;;;7.60;;
3085;SDS011;52812;48.960;9.108;2023-11-19T01:01:33;11.87;;;7.67;;
3085;SDS011;52812;48.960;9.108;2023-11-19T01:03:59;13.57;;;7.83;;
3085;SDS011;52812;48.960;9.108;2023-11-19T01:06:30;13.07;;;7.93;;
3085;SDS011;52812;48.960;9.108;2023-11-19T01:08:57;10.50;;;7.63;;
3085;SDS011;52812;48.960;9.108;2023-11-19T01:11:23;10.47;;;7.70;;
3085;SDS011;52812;48.960;9.108;2023-11-19T01:13:50;12.07;;;8.23;;
3085;SDS011;52812;48.960;9.108;2023-11-19T01:16:16;13.27;;;7.90;;
3085;SDS011;52812;48.960;9.108;2023-11-19T01:18:43;11.13;;;7.83;;
3085;SDS011;52812;48.960;9.108;2023-11-19T01:21:09;12.53;;;8.50;;
3085;SDS011;52812;48.960;9.108;2023-11-19T01:23:35;12.37;;;7.50;;
3085;SDS011;52812;48.960;9.108;2023-11-19T01:26:02;10.70;;;7.27;;
3085;SDS011;52812;48.960;9.108;2023-11-19T01:28:28;12.50;;;7.13;;
3085;SDS011;52812;48.960;9.108;2023-11-19T01:30:53;9.60;;;6.50;;
3085;SDS011;52812;48.960;9.108;2023-11-19T01:33:19;8.80;;;6.23;;
3085;SDS011;52812;48.960;9.108;2023-11-19T01:35:46;7.90;;;6.20;;
3085;SDS011;52812;48.960;9.108;2023-11-19T01:38:12;7.50;;;4.93;;
3085;SDS011;52812;48.960;9.108;2023-11-19T01:40:37;8.33;;;5.77;;
3085;SDS011;52812;48.960;9.108;2023-11-19T01:43:03;7.40;;;5.90;;
3085;SDS011;52812;48.960;9.108;2023-11-19T01:45:29;9.00;;;6.90;;
3085;SDS011;52812;48.960;9.108;2023-11-19T01:47:56;8.20;;;5.90;;
3085;SDS011;52812;48.960;9.108;2023-11-19T01:50:23;6.63;;;5.57;;
3085;SDS011;52812;48.960;9.108;2023-11-19T01:52:50;6.97;;;5.53;;
3085;SDS011;52812;48.960;9.108;2023-11-19T01:55:18;8.43;;;6.20;;
3085;SDS011;52812;48.960;9.108;2023-11-19T01:57:45;8.23;;;6.00;;
3085;SDS011;52812;48.960;9.108;2023-11-19T02:00:12;9.33;;;6.00;;
3085;SDS011;52812;48.960;9.108;2023-11-19T02:02:39;10.80;;;6.60;;
3085;SDS011;52812;48.960;9.108;2023-11-19T02:05:08;12.20;;;6.97;;
3085;SDS011;52812;48.960;9.108;2023-11-19T02:07:36;12.73;;;7.50;;
3085;SDS011;52812;48.960;9.108;2023-11-19T02:10:01;10.47;;;7.57;;
3085;SDS011;52812;48.960;9.108;2023-11-19T02:12:27;10.97;;;7.30;;
3085;SDS011;52812;48.960;9.108;2023-11-19T02:14:53;10.27;;;7.10;;
3085;SDS011;52812;48.960;9.108;2023-11-19T02:17:29;10.63;;;7.20;;
3085;SDS011;52812;48.960;9.108;2023-11-19T02:20:05;11.93;;;7.57;;
3085;SDS011;52812;48.960;9.108;2023-11-19T02:22:36;9.70;;;7.27;;
3085;SDS011;52812;48.960;9.108;2023-11-19T02:25:10;7.17;;;5.90;;
3085;SDS011;52812;48.960;9.108;2023-11-19T02:27:57;8.03;;;5.73;;
3085;SDS011;52812;48.960;9.108;2023-11-19T02:30:25;6.83;;;5.03;;
3085;SDS011;52812;48.960;9.108;2023-11-19T02:32:51;6.60;;;5.20;;
3085;SDS011;52812;48.960;9.108;2023-11-19T02:35:19;8.03;;;5.57;;
3085;SDS011;52812;48.960;9.108;2023-11-19T02:37:46;10.70;;;6.00;;
3085;SDS011;52812;48.960;9.108;2023-11-19T02:40:12;8.83;;;6.13;;
3085;SDS011;52812;48.960;9.108;2023-11-19T02:42:38;8.30;;;6.37;;
3085;SDS011;52812;48.960;9.108;2023-11-19T02:45:04;12.50;;;7.50;;
3085;SDS011;52812;48.960;9.108;2023-11-19T02:47:31;8.07;;;5.80;;
3085;SDS011;52812;48.960;9.108;2023-11-19T02:50:01;11.07;;;6.00;;
3085;SDS011;52812;48.960;9.108;2023-11-19T02:52:27;6.53;;;5.17;;
3085;SDS011;52812;48.960;9.108;2023-11-19T02:54:53;8.13;;;5.43;;
3085;SDS011;52812;48.960;9.108;2023-11-19T02:57:19;13.30;;;6.07;;
3085;SDS011;52812;48.960;9.108;2023-11-19T02:59:46;8.63;;;5.30;;
3085;SDS011;52812;48.960;9.108;2023-11-19T03:02:11;10.20;;;5.90;;
3085;SDS011;52812;48.960;9.108;2023-11-19T03:04:37;8.53;;;5.80;;
3085;SDS011;52812;48.960;9.108;2023-11-19T03:07:07;8.00;;;5.03;;
3085;SDS011;52812;48.960;9.108;2023-11-19T03:09:33;8.10;;;5.33;;
3085;SDS011;52812;48.960;9.108;2023-11-19T03:12:00;9.23;;;5.87;;
3085;SDS011;52812;48.960;9.108;2023-11-19T03:14:26;8.10;;;5.67;;
3085;SDS011;52812;48.960;9.108;2023-11-19T03:16:52;10.33;;;6.50;;
3085;SDS011;52812;48.960;9.108;2023-11-19T03:19:18;11.20;;;7.40;;
3085;SDS011;52812;48.960;9.108;2023-11-19T03:21:44;11.47;;;7.27;;
3085;SDS011;52812;48.960;9.108;2023-11-19T03:24:10;14.53;;;7.57;;
3085;SDS011;52812;48.960;9.108;2023-11-19T03:26:38;10.00;;;6.30;;
3085;SDS011;52812;48.960;9.108;2023-11-19T03:29:04;10.10;;;6.30;;
3085;SDS011;52812;48.960;9.108;2023-11-19T03:31:29;12.03;;;6.40;;
3085;SDS011;52812;48.960;9.108;2023-11-19T03:33:55;10.63;;;6.00;;
3085;SDS011;52812;48.960;9.108;2023-11-19T03:36:21;9.93;;;5.77;;
3085;SDS011;52812;48.960;9.108;2023-11-19T03:38:47;10.93;;;6.50;;
3085;SDS011;52812;48.960;9.108;2023-11-19T03:41:13;8.87;;;6.03;;
3085;SDS011;52812;48.960;9.108;2023-11-19T03:43:39;8.33;;;5.90;;
3085;SDS011;52812;48.960;9.108;2023-11-19T03:46:21;10.47;;;6.17;;
3085;SDS011;52812;48.960;9.108;2023-11-19T03:48:47;8.63;;;5.90;;
3085;SDS011;52812;48.960;9.108;2023-11-19T03:51:14;9.07;;;5.93;;
3085;SDS011;52812;48.960;9.108;2023-11-19T03:53:43;9.37;;;5.60;;
3085;SDS011;52812;48.960;9.108;2023-11-19T03:56:10;6.80;;;5.60;;
3085;SDS011;52812;48.960;9.108;2023-11-19T03:58:37;8.43;;;6.17;;
3085;SDS011;52812;48.960;9.108;2023-11-19T04:01:03;9.80;;;6.20;;
3085;SDS011;52812;48.960;9.108;2023-11-19T04:03:29;10.17;;;5.50;;
3085;SDS011;52812;48.960;9.108;2023-11-19T04:05:55;7.60;;;5.57;;
3085;SDS011;52812;48.960;9.108;2023-11-19T04:08:21;9.20;;;5.70;;
3085;SDS011;52812;48.960;9.108;2023-11-19T04:10:47;8.03;;;5.90;;
3085;SDS011;52812;48.960;9.108;2023-11-19T04:13:13;7.83;;;5.70;;
3085;SDS011;52812;48.960;9.108;2023-11-19T04:15:38;8.47;;;5.73;;
3085;SDS011;52812;48.960;9.108;2023-11-19T04:18:04;10.67;;;6.07;;
3085;SDS011;52812;48.960;9.108;2023-11-19T04:20:30;11.93;;;6.60;;
3085;SDS011;52812;48.960;9.108;2023-11-19T04:22:56;8.80;;;5.50;;
3085;SDS011;52812;48.960;9.108;2023-11-19T04:25:22;7.53;;;5.27;;
3085;SDS011;52812;48.960;9.108;2023-11-19T04:27:51;9.07;;;5.90;;
3085;SDS011;52812;48.960;9.108;2023-11-19T04:30:16;9.13;;;5.60;;
3085;SDS011;52812;48.960;9.108;2023-11-19T04:32:43;7.67;;;5.70;;
3085;SDS011;52812;48.960;9.108;2023-11-19T04:35:09;10.50;;;5.27;;
3085;SDS011;52812;48.960;9.108;2023-11-19T04:37:35;8.17;;;5.33;;
3085;SDS011;52812;48.960;9.108;2023-11-19T04:40:01;11.47;;;6.67;;
3085;SDS011;52812;48.960;9.108;2023-11-19T04:42:27;10.13;;;6.00;;
3085;SDS011;52812;48.960;9.108;2023-11-19T04:44:54;8.47;;;5.20;;
3085;SDS011;52812;48.960;9.108;2023-11-19T04:47:20;9.40;;;6.00;;
3085;SDS011;52812;48.960;9.108;2023-11-19T04:49:46;10.40;;;6.80;;
3085;SDS011;52812;48.960;9.108;2023-11-19T04:52:11;10.30;;;6.00;;
3085;SDS011;52812;48.960;9.108;2023-11-19T04:54:41;10.80;;;6.20;;
3085;SDS011;52812;48.960;9.108;2023-11-19T04:57:07;9.70;;;6.50;;
3085;SDS011;52812;48.960;9.108;2023-11-19T04:59:35;10.30;;;7.07;;
3085;SDS011;52812;48.960;9.108;2023-11-19T05:02:01;11.40;;;6.40;;
3085;SDS011;52812;48.960;9.108;2023-11-19T05:04:27;8.40;;;5.77;;
3085;SDS011;52812;48.960;9.108;2023-11-19T05:06:52;13.50;;;6.60;;
3085;SDS011;52812;48.960;9.108;2023-11-19T05:09:18;9.70;;;5.80;;
3085;SDS011;52812;48.960;9.108;2023-11-19T05:11:44;11.10;;;5.80;;
3085;SDS011;52812;48.960;9.108;2023-11-19T05:14:09;8.50;;;5.80;;
3085;SDS011;52812;48.960;9.108;2023-11-19T05:16:35;9.20;;;5.40;;
3085;SDS011;52812;48.960;9.108;2023-11-19T05:19:00;9.50;;;5.50;;
3085;SDS011;52812;48.960;9.108;2023-11-19T05:21:26;8.67;;;5.60;;
3085;SDS011;52812;48.960;9.108;2023-11-19T05:23:52;9.93;;;5.77;;
3085;SDS011;52812;48.960;9.108;2023-11-19T05:26:18;8.13;;;5.77;;
3085;SDS011;52812;48.960;9.108;2023-11-19T05:28:44;8.67;;;5.53;;
3085;SDS011;52812;48.960;9.108;2023-11-19T05:31:10;7.03;;;5.07;;
3085;SDS011;52812;48.960;9.108;2023-11-19T05:33:36;7.73;;;5.13;;
3085;SDS011;52812;48.960;9.108;2023-11-19T05:36:02;7.17;;;5.53;;
3085;SDS011;52812;48.960;9.108;2023-11-19T05:38:29;5.90;;;4.80;;
3085;SDS011;52812;48.960;9.108;2023-11-19T05:40:54;7.27;;;4.30;;
3085;SDS011;52812;48.960;9.108;2023-11-19T05:43:20;2.00;;;1.40;;
3085;SDS011;52812;48.960;9.108;2023-11-19T05:45:47;1.47;;;1.33;;
3085;SDS011;52812;48.960;9.108;2023-11-19T05:48:12;2.07;;;1.17;;
3085;SDS011;52812;48.960;9.108;2023-11-19T05:50:38;1.20;;;1.10;;
3085;SDS011;52812;48.960;9.108;2023-11-19T05:53:04;1.20;;;1.00;;
3085;SDS011;52812;48.960;9.108;2023-11-19T05:55:33;1.23;;;1.10;;
3085;SDS011;52812;48.960;9.108;2023-11-19T05:57:59;1.10;;;1.00;;
3085;SDS011;52812;48.960;9.108;2023-11-19T06:00:25;1.40;;;1.20;;
3085;SDS011;52812;48.960;9.108;2023-11-19T06:02:51;1.10;;;1.00;;
3085;SDS011;52812;48.960;9.108;2023-11-19T06:05:17;2.03;;;1.83;;
3085;SDS011;52812;48.960;9.108;2023-11-19T06:07:43;5.57;;;3.20;;
3085;SDS011;52812;48.960;9.108;2023-11-19T06:10:09;2.20;;;1.57;;
3085;SDS011;52812;48.960;9.108;2023-11-19T06:12:35;5.13;;;1.63;;
3085;SDS011;52812;48.960;9.108;2023-11-19T06:15:06;2.70;;;1.40;;
3085;SDS011;52812;48.960;9.108;2023-11-19T06:17:33;1.40;;;1.30;;
3085;SDS011;52812;48.960;9.108;2023-11-19T06:19:59;1.40;;;1.20;;
3085;SDS011;52812;48.960;9.108;2023-11-19T06:22:25;2.22;;;1.40;;
3085;SDS011;52812;48.960;9.108;2023-11-19T06:24:50;1.63;;;1.20;;
3085;SDS011;52812;48.960;9.108;2023-11-19T06:27:16;1.43;;;1.30;;
3085;SDS011;52812;48.960;9.108;2023-11-19T06:29:41;1.83;;;1.50;;
3085;SDS011;52812;48.960;9.108;2023-11-19T06:32:07;1.60;;;1.50;;
3085;SDS011;52812;48.960;9.108;2023-11-19T06:34:33;1.30;;;1.20;;
3085;SDS011;52812;48.960;9.108;2023-11-19T06:36:59;2.07;;;1.40;;
3085;SDS011;52812;48.960;9.108;2023-11-19T06:39:25;1.50;;;1.20;;
3085;SDS011;52812;48.960;9.108;2023-11-19T06:41:50;1.43;;;1.33;;
3085;SDS011;52812;48.960;9.108;2023-11-19T06:44:16;1.70;;;1.50;;
3085;SDS011;52812;48.960;9.108;2023-11-19T06:46:42;1.37;;;1.23;;
3085;SDS011;52812;48.960;9.108;2023-11-19T06:49:08;1.30;;;1.20;;
3085;SDS011;52812;48.960;9.108;2023-11-19T06:51:34;1.50;;;1.40;;
3085;SDS011;52812;48.960;9.108;2023-11-19T06:54:00;2.00;;;1.20;;
3085;SDS011;52812;48.960;9.108;2023-11-19T06:56:25;1.33;;;1.23;;
3085;SDS011;52812;48.960;9.108;2023-11-19T06:58:51;1.20;;;1.10;;
3085;SDS011;52812;48.960;9.108;2023-11-19T07:01:18;1.77;;;1.40;;
3085;SDS011;52812;48.960;9.108;2023-11-19T07:03:44;1.40;;;1.30;;
3085;SDS011;52812;48.960;9.108;2023-11-19T07:06:11;1.97;;;1.57;;
3085;SDS011;52812;48.960;9.108;2023-11-19T07:08:44;1.50;;;1.40;;
3085;SDS011;52812;48.960;9.108;2023-11-19T07:11:10;2.00;;;1.80;;
3085;SDS011;52812;48.960;9.108;2023-11-19T07:13:36;1.50;;;1.40;;
3085;SDS011;52812;48.960;9.108;2023-11-19T07:16:02;2.53;;;1.93;;
3085;SDS011;52812;48.960;9.108;2023-11-19T07:18:28;2.20;;;2.00;;
3085;SDS011;52812;48.960;9.108;2023-11-19T07:20:54;2.50;;;2.13;;
3085;SDS011;52812;48.960;9.108;2023-11-19T07:23:20;2.87;;;2.27;;
3085;SDS011;52812;48.960;9.108;2023-11-19T07:25:46;4.83;;;3.50;;
3085;SDS011;52812;48.960;9.108;2023-11-19T07:28:12;3.93;;;3.33;;
3085;SDS011;52812;48.960;9.108;2023-11-19T07:30:39;3.70;;;3.20;;
3085;SDS011;52812;48.960;9.108;2023-11-19T07:33:05;3.40;;;3.10;;
3085;SDS011;52812;48.960;9.108;2023-11-19T07:35:31;4.00;;;2.67;;
3085;SDS011;52812;48.960;9.108;2023-11-19T07:37:57;2.50;;;2.30;;
3085;SDS011;52812;48.960;9.108;2023-11-19T07:40:23;3.43;;;2.03;;
3085;SDS011;52812;48.960;9.108;2023-11-19T07:42:49;4.17;;;3.33;;
3085;SDS011;52812;48.960;9.108;2023-11-19T07:45:15;4.70;;;3.57;;
3085;SDS011;52812;48.960;9.108;2023-11-19T07:47:42;5.00;;;3.90;;
3085;SDS011;52812;48.960;9.108;2023-11-19T07:50:09;4.67;;;3.73;;
3085;SDS011;52812;48.960;9.108;2023-11-19T07:52:35;4.13;;;3.73;;
3085;SDS011;52812;48.960;9.108;2023-11-19T07:55:02;3.67;;;3.23;;
3085;SDS011;52812;48.960;9.108;2023-11-19T07:57:28;6.53;;;4.80;;
3085;SDS011;52812;48.960;9.108;2023-11-19T07:59:56;6.03;;;5.07;;
3085;SDS011;52812;48.960;9.108;2023-11-19T08:02:22;4.37;;;3.43;;
3085;SDS011;52812;48.960;9.108;2023-11-19T08:04:48;3.83;;;3.43;;
3085;SDS011;52812;48.960;9.108;2023-11-19T08:07:16;3.80;;;3.23;;
3085;SDS011;52812;48.960;9.108;2023-11-19T08:09:43;5.70;;;3.53;;
3085;SDS011;52812;48.960;9.108;2023-11-19T08:12:09;4.43;;;3.80;;
3085;SDS011;52812;48.960;9.108;2023-11-19T08:14:35;4.50;;;3.50;;
3085;SDS011;52812;48.960;9.108;2023-11-19T08:17:01;4.33;;;3.40;;
3085;SDS011;52812;48.960;9.108;2023-11-19T08:19:27;2.90;;;2.60;;
3085;SDS011;52812;48.960;9.108;2023-11-19T08:21:53;4.00;;;2.97;;
3085;SDS011;52812;48.960;9.108;2023-11-19T08:24:19;3.90;;;3.30;;
3085;SDS011;52812;48.960;9.108;2023-11-19T08:26:44;4.77;;;2.70;;
3085;SDS011;52812;48.960;9.108;2023-11-19T08:29:13;2.47;;;2.07;;
3085;SDS011;52812;48.960;9.108;2023-11-19T08:31:39;2.70;;;2.10;;
3085;SDS011;52812;48.960;9.108;2023-11-19T08:34:04;5.33;;;3.60;;
3085;SDS011;52812;48.960;9.108;2023-11-19T08:36:33;5.43;;;4.07;;
3085;SDS011;52812;48.960;9.108;2023-11-19T08:38:59;8.00;;;5.67;;
3085;SDS011;52812;48.960;9.108;2023-11-19T08:41:25;6.47;;;4.37;;
3085;SDS011;52812;48.960;9.108;2023-11-19T08:43:51;4.53;;;3.10;;
3085;SDS011;52812;48.960;9.108;2023-11-19T08:46:16;1.97;;;1.60;;
3085;SDS011;52812;48.960;9.108;2023-11-19T08:48:42;1.40;;;1.30;;
3085;SDS011;52812;48.960;9.108;2023-11-19T08:51:08;1.93;;;1.37;;
3085;SDS011;52812;48.960;9.108;2023-11-19T08:53:33;1.30;;;1.20;;
3085;SDS011;52812;48.960;9.108;2023-11-19T08:55:59;1.87;;;1.40;;
3085;SDS011;52812;48.960;9.108;2023-11-19T08:58:26;2.50;;;1.40;;
3085;SDS011;52812;48.960;9.108;2023-11-19T09:00:52;1.37;;;1.20;;
3085;SDS011;52812;48.960;9.108;2023-11-19T09:03:18;1.67;;;1.30;;
3085;SDS011;52812;48.960;9.108;2023-11-19T09:05:43;2.30;;;1.37;;
3085;SDS011;52812;48.960;9.108;2023-11-19T09:08:09;1.03;;;0.97;;
3085;SDS011;52812;48.960;9.108;2023-11-19T09:10:36;3.40;;;1.50;;
3085;SDS011;52812;48.960;9.108;2023-11-19T09:13:02;2.63;;;1.97;;
3085;SDS011;52812;48.960;9.108;2023-11-19T09:15:29;3.73;;;1.50;;
3085;SDS011;52812;48.960;9.108;2023-11-19T09:17:55;1.40;;;1.30;;
3085;SDS011;52812;48.960;9.108;2023-11-19T09:20:21;2.93;;;1.83;;
3085;SDS011;52812;48.960;9.108;2023-11-19T09:22:47;5.93;;;3.20;;
3085;SDS011;52812;48.960;9.108;2023-11-19T09:25:12;3.77;;;2.13;;
3085;SDS011;52812;48.960;9.108;2023-11-19T09:27:41;3.40;;;2.40;;
3085;SDS011;52812;48.960;9.108;2023-11-19T09:30:08;2.57;;;1.70;;
3085;SDS011;52812;48.960;9.108;2023-11-19T09:32:34;1.63;;;1.40;;
3085;SDS011;52812;48.960;9.108;2023-11-19T09:35:00;4.50;;;1.43;;
3085;SDS011;52812;48.960;9.108;2023-11-19T09:37:27;3.70;;;2.10;;
3085;SDS011;52812;48.960;9.108;2023-11-19T09:39:53;2.87;;;1.93;;
3085;SDS011;52812;48.960;9.108;2023-11-19T09:42:19;1.70;;;1.50;;
3085;SDS011;52812;48.960;9.108;2023-11-19T09:44:44;2.00;;;1.80;;
3085;SDS011;52812;48.960;9.108;2023-11-19T09:47:12;2.13;;;1.73;;
3085;SDS011;52812;48.960;9.108;2023-11-19T09:49:39;2.03;;;1.47;;
3085;SDS011;52812;48.960;9.108;2023-11-19T09:52:05;2.53;;;1.60;;
3085;SDS011;52812;48.960;9.108;2023-11-19T09:54:31;3.33;;;2.00;;
3085;SDS011;52812;48.960;9.108;2023-11-19T09:56:57;2.53;;;1.83;;
3085;SDS011;52812;48.960;9.108;2023-11-19T09:59:27;1.67;;;1.40;;
3085;SDS011;52812;48.960;9.108;2023-11-19T10:01:54;2.60;;;1.70;;
3085;SDS011;52812;48.960;9.108;2023-11-19T10:04:21;3.07;;;1.57;;
3085;SDS011;52812;48.960;9.108;2023-11-19T10:06:47;1.33;;;1.23;;
3085;SDS011;52812;48.960;9.108;2023-11-19T10:09:15;2.30;;;1.20;;
3085;SDS011;52812;48.960;9.108;2023-11-19T10:11:40;2.13;;;1.47;;
3085;SDS011;52812;48.960;9.108;2023-11-19T10:14:06;1.40;;;1.30;;
3085;SDS011;52812;48.960;9.108;2023-11-19T10:16:33;1.33;;;1.23;;
3085;SDS011;52812;48.960;9.108;2023-11-19T10:19:02;1.73;;;1.40;;
3085;SDS011;52812;48.960;9.108;2023-11-19T10:21:28;1.37;;;1.20;;
3085;SDS011;52812;48.960;9.108;2023-11-19T10:23:57;2.37;;;1.30;;
3085;SDS011;52812;48.960;9.108;2023-11-19T10:26:25;1.47;;;1.23;;
3085;SDS011;52812;48.960;9.108;2023-11-19T10:28:52;2.73;;;1.17;;
3085;SDS011;52812;48.960;9.108;2023-11-19T10:31:19;1.60;;;1.10;;
3085;SDS011;52812;48.960;9.108;2023-11-19T10:33:49;2.00;;;1.60;;
3085;SDS011;52812;48.960;9.108;2023-11-19T10:36:16;1.40;;;1.10;;
3085;SDS011;52812;48.960;9.108;2023-11-19T10:38:51;1.70;;;1.23;;
3085;SDS011;52812;48.960;9.108;2023-11-19T10:41:26;1.87;;;1.30;;
3085;SDS011;52812;48.960;9.108;2023-11-19T10:43:56;1.87;;;1.13;;
3085;SDS011;52812;48.960;9.108;2023-11-19T10:46:22;1.30;;;1.20;;
3085;SDS011;52812;48.960;9.108;2023-11-19T10:48:48;1.97;;;1.03;;
3085;SDS011;52812;48.960;9.108;2023-11-19T10:51:20;2.73;;;1.13;;
3085;SDS011;52812;48.960;9.108;2023-11-19T10:53:47;1.20;;;1.07;;
3085;SDS011;52812;48.960;9.108;2023-11-19T10:56:15;3.90;;;1.27;;
3085;SDS011;52812;48.960;9.108;2023-11-19T10:58:44;1.23;;;1.10;;
3085;SDS011;52812;48.960;9.108;2023-11-19T11:01:16;1.20;;;1.07;;
3085;SDS011;52812;48.960;9.108;2023-11-19T11:03:46;1.67;;;1.20;;
3085;SDS011;52812;48.960;9.108;2023-11-19T11:06:12;2.13;;;1.00;;
3085;SDS011;52812;48.960;9.108;2023-11-19T11:08:38;2.40;;;1.90;;
3085;SDS011;52812;48.960;9.108;2023-11-19T11:11:05;1.63;;;1.33;;
3085;SDS011;52812;48.960;9.108;2023-11-19T11:13:32;1.97;;;1.63;;
3085;SDS011;52812;48.960;9.108;2023-11-19T11:15:59;1.20;;;0.97;;
3085;SDS011;52812;48.960;9.108;2023-11-19T11:18:25;1.87;;;1.20;;
3085;SDS011;52812;48.960;9.108;2023-11-19T11:20:52;3.73;;;1.67;;
3085;SDS011;52812;48.960;9.108;2023-11-19T11:39:41;1.77;;;1.50;;
3085;SDS011;52812;48.960;9.108;2023-11-19T11:50:13;2.20;;;1.70;;
3085;SDS011;52812;48.960;9.108;2023-11-19T11:57:55;1.80;;;1.20;;
3085;SDS011;52812;48.960;9.108;2023-11-19T12:00:22;1.40;;;1.30;;
3085;SDS011;52812;48.960;9.108;2023-11-19T12:02:48;2.90;;;1.33;;
3085;SDS011;52812;48.960;9.108;2023-11-19T12:05:15;2.00;;;1.50;;
3085;SDS011;52812;48.960;9.108;2023-11-19T12:07:40;2.10;;;1.30;;
3085;SDS011;52812;48.960;9.108;2023-11-19T12:10:06;1.93;;;1.40;;
3085;SDS011;52812;48.960;9.108;2023-11-19T12:12:33;2.60;;;1.40;;
3085;SDS011;52812;48.960;9.108;2023-11-19T12:15:01;1.53;;;1.23;;
3085;SDS011;52812;48.960;9.108;2023-11-19T12:20:07;1.63;;;1.20;;
3085;SDS011;52812;48.960;9.108;2023-11-19T12:22:40;2.50;;;2.30;;
3085;SDS011;52812;48.960;9.108;2023-11-19T12:25:08;2.63;;;2.10;;
3085;SDS011;52812;48.960;9.108;2023-11-19T12:27:35;1.93;;;1.40;;
3085;SDS011;52812;48.960;9.108;2023-11-19T12:30:02;2.80;;;1.30;;
3085;SDS011;52812;48.960;9.108;2023-11-19T12:32:51;1.67;;;1.53;;
3085;SDS011;52812;48.960;9.108;2023-11-19T12:35:18;3.00;;;1.40;;
3085;SDS011;52812;48.960;9.108;2023-11-19T12:37:49;2.87;;;1.10;;
3085;SDS011;52812;48.960;9.108;2023-11-19T12:42:43;1.40;;;1.27;;
3085;SDS011;52812;48.960;9.108;2023-11-19T12:45:09;3.07;;;1.40;;
3085;SDS011;52812;48.960;9.108;2023-11-19T12:47:42;2.87;;;1.40;;
3085;SDS011;52812;48.960;9.108;2023-11-19T12:50:08;1.40;;;1.13;;
3085;SDS011;52812;48.960;9.108;2023-11-19T12:52:35;1.73;;;1.20;;
3085;SDS011;52812;48.960;9.108;2023-11-19T12:55:02;3.10;;;1.20;;
3085;SDS011;52812;48.960;9.108;2023-11-19T12:57:36;2.97;;;1.33;;
3085;SDS011;52812;48.960;9.108;2023-11-19T13:00:06;5.50;;;1.40;;
3085;SDS011;52812;48.960;9.108;2023-11-19T13:02:45;2.10;;;1.30;;
3085;SDS011;52812;48.960;9.108;2023-11-19T13:05:31;1.53;;;1.20;;
3085;SDS011;52812;48.960;9.108;2023-11-19T13:08:04;2.53;;;1.40;;
3085;SDS011;52812;48.960;9.108;2023-11-19T13:10:32;2.50;;;1.43;;
3085;SDS011;52812;48.960;9.108;2023-11-19T13:13:05;2.70;;;1.70;;
3085;SDS011;52812;48.960;9.108;2023-11-19T13:15:33;3.53;;;1.50;;
3085;SDS011;52812;48.960;9.108;2023-11-19T13:17:59;2.33;;;1.60;;
3085;SDS011;52812;48.960;9.108;2023-11-19T13:20:26;2.10;;;1.40;;
3085;SDS011;52812;48.960;9.108;2023-11-19T13:22:59;2.73;;;1.40;;
3085;SDS011;52812;48.960;9.108;2023-11-19T13:25:26;2.77;;;1.80;;
3085;SDS011;52812;48.960;9.108;2023-11-19T13:27:53;2.93;;;1.70;;
3085;SDS011;52812;48.960;9.108;2023-11-19T13:30:22;2.10;;;1.40;;
3085;SDS011;52812;48.960;9.108;2023-11-19T13:32:48;2.10;;;1.40;;
3085;SDS011;52812;48.960;9.108;2023-11-19T13:35:15;4.10;;;1.60;;
3085;SDS011;52812;48.960;9.108;2023-11-19T13:37:45;2.93;;;1.43;;
3085;SDS011;52812;48.960;9.108;2023-11-19T13:40:11;1.53;;;1.20;;
3085;SDS011;52812;48.960;9.108;2023-11-19T13:42:43;2.30;;;1.70;;
3085;SDS011;52812;48.960;9.108;2023-11-19T13:45:11;2.43;;;1.30;;
3085;SDS011;52812;48.960;9.108;2023-11-19T13:47:42;3.07;;;1.30;;
3085;SDS011;52812;48.960;9.108;2023-11-19T13:50:10;1.60;;;1.47;;
3085;SDS011;52812;48.960;9.108;2023-11-19T13:52:38;3.03;;;1.60;;
3085;SDS011;52812;48.960;9.108;2023-11-19T13:55:05;5.37;;;1.70;;
3085;SDS011;52812;48.960;9.108;2023-11-19T13:57:33;3.23;;;1.43;;
3085;SDS011;52812;48.960;9.108;2023-11-19T13:59:59;1.67;;;1.40;;
3085;SDS011;52812;48.960;9.108;2023-11-19T14:02:27;3.97;;;1.50;;
3085;SDS011;52812;48.960;9.108;2023-11-19T14:04:53;1.83;;;1.43;;
3085;SDS011;52812;48.960;9.108;2023-11-19T14:07:18;2.03;;;1.50;;
3085;SDS011;52812;48.960;9.108;2023-11-19T14:09:44;1.90;;;1.20;;
3085;SDS011;52812;48.960;9.108;2023-11-19T14:12:10;2.10;;;1.30;;
3085;SDS011;52812;48.960;9.108;2023-11-19T14:14:38;2.47;;;1.40;;
3085;SDS011;52812;48.960;9.108;2023-11-19T14:17:04;1.80;;;1.60;;
3085;SDS011;52812;48.960;9.108;2023-11-19T14:19:30;1.90;;;1.40;;
3085;SDS011;52812;48.960;9.108;2023-11-19T14:21:55;2.10;;;1.30;;
3085;SDS011;52812;48.960;9.108;2023-11-19T14:24:21;1.50;;;1.20;;
3085;SDS011;52812;48.960;9.108;2023-11-19T14:26:48;2.30;;;1.53;;
3085;SDS011;52812;48.960;9.108;2023-11-19T14:29:15;3.17;;;1.30;;
3085;SDS011;52812;48.960;9.108;2023-11-19T14:31:40;1.73;;;1.20;;
3085;SDS011;52812;48.960;9.108;2023-11-19T14:34:06;1.70;;;1.30;;
3085;SDS011;52812;48.960;9.108;2023-11-19T14:36:35;2.70;;;1.50;;
3085;SDS011;52812;48.960;9.108;2023-11-19T14:39:00;2.90;;;1.30;;
3085;SDS011;52812;48.960;9.108;2023-11-19T14:41:26;2.00;;;1.40;;
3085;SDS011;52812;48.960;9.108;2023-11-19T14:43:52;2.00;;;1.40;;
3085;SDS011;52812;48.960;9.108;2023-11-19T14:46:17;2.07;;;1.20;;
3085;SDS011;52812;48.960;9.108;2023-11-19T14:48:43;2.17;;;1.30;;
3085;SDS011;52812;48.960;9.108;2023-11-19T14:51:09;2.43;;;1.60;;
3085;SDS011;52812;48.960;9.108;2023-11-19T14:53:35;1.60;;;1.10;;
3085;SDS011;52812;48.960;9.108;2023-11-19T14:56:01;2.33;;;1.40;;
3085;SDS011;52812;48.960;9.108;2023-11-19T14:58:27;1.60;;;1.30;;
3085;SDS011;52812;48.960;9.108;2023-11-19T15:00:53;1.80;;;1.40;;
3085;SDS011;52812;48.960;9.108;2023-11-19T15:03:18;1.63;;;1.50;;
3085;SDS011;52812;48.960;9.108;2023-11-19T15:05:44;2.17;;;1.60;;
3085;SDS011;52812;48.960;9.108;2023-11-19T15:08:11;1.97;;;1.37;;
3085;SDS011;52812;48.960;9.108;2023-11-19T15:10:37;8.00;;;1.73;;
3085;SDS011;52812;48.960;9.108;2023-11-19T15:13:02;4.13;;;1.63;;
3085;SDS011;52812;48.960;9.108;2023-11-19T15:15:30;1.67;;;1.40;;
3085;SDS011;52812;48.960;9.108;2023-11-19T15:17:55;2.97;;;1.67;;
3085;SDS011;52812;48.960;9.108;2023-11-19T15:20:21;1.80;;;1.40;;
3085;SDS011;52812;48.960;9.108;2023-11-19T15:22:46;1.53;;;1.43;;
3085;SDS011;52812;48.960;9.108;2023-11-19T15:25:12;2.30;;;1.50;;
3085;SDS011;52812;48.960;9.108;2023-11-19T15:27:38;4.13;;;2.00;;
3085;SDS011;52812;48.960;9.108;2023-11-19T15:30:04;2.53;;;1.50;;
3085;SDS011;52812;48.960;9.108;2023-11-19T15:32:30;3.43;;;2.33;;